Tiempo atmosférico en la estación meteorológica de Roncesvalles, Navarra (940 m.)



Fecha
DESCASC
Temp. máxima en grados centígrados (hora)
DESCASC
Temp. mínima en grados centígrados (hora)
DESCASC
Temp. media en grados centígrados
DESCASC
Racha de viento máxima en m/sg (hora)
DESCASC
Velocidad máxima media en intervalos de 10 minutos(hora)
DESCASC
Precipitaciones diarias en mm
DESCASC
Precipitaciones de 00:00 a 06:00 en mm
DESCASC
Precipitaciones de 06:00 a 12:00 en mm
DESCASC
Precipitaciones de 12:00 a 18:00 en mm
DESCASC
Precipitaciones de 18:00 a 24:00 en mm
DESCASC
20-09-2020 19.7 (16:00) 9.6 (08:20) 14.7 6.39 (13:00) 3.61 (18:00) 0 0 0 0 0
19-09-2020 17.9 (15:50) 12.5 (17:10) 15.2 15 (07:10) 6.67 (09:40) 22.2 0 0 22.2 0
18-09-2020 22 (16:30) 14.3 (22:40) 18.2 13.61 (13:30) 6.11 (11:20) 0.4 0 0.4 0 0
17-09-2020 27.1 (15:30) 14.1 (00:00) 20.6 11.11 (18:00) 5.28 (15:20) 0 0 0 0 0
16-09-2020 26.1 (13:10) 12.6 (00:00) 19.4 7.5 (16:20) 3.61 (16:20) 0 0 0 0 0
15-09-2020 26.6 (16:50) 13.5 (00:00) 20.1 8.89 (03:50) 4.17 (11:30) 1.4 1.4 0 0 0
14-09-2020 28.3 (16:40) 16.1 (00:00) 22.2 9.44 (16:00) 5.28 (13:50) 0 0 0 0 0
13-09-2020 28.1 (16:30) 11.8 (00:00) 20 8.06 (15:30) 4.72 (12:30) 0 0 0 0 0
12-09-2020 21.7 (12:40) 11.3 (00:00) 16.5 9.17 (14:20) 4.72 (14:50) 0 0 0 0 0
11-09-2020 20.5 (18:00) 12.7 (00:00) 16.6 10.28 (13:10) 5.28 (13:10) 0 0 0 0 0
10-09-2020 20.7 (17:40) 12.5 (00:00) 16.6 7.78 (15:40) 3.33 (18:10) 0 0 0 0 0
09-09-2020 22 (17:10) 7.4 (00:00) 14.7 10.56 (17:00) 4.44 (11:50) 0 0 0 0 0
08-09-2020 17.8 (16:50) 7.7 (00:00) 12.7 10.28 (00:50) 4.44 (16:20) 0 0 0 0 0
07-09-2020 14.8 (16:50) 8.1 (07:30) 11.5 12.22 (17:20) 3.89 (17:20) 0 0 0 0 0
06-09-2020 15.5 (16:10) 9.7 (00:00) 12.6 8.33 (01:10) 3.61 (01:30) 1.8 1.6 0.2 0 0
05-09-2020 19.2 (12:00) 11.5 (00:00) 15.4 8.61 (16:40) 4.72 (11:00) 1 0 0 0 1
04-09-2020 28.2 (17:50) 10.6 (00:00) 19.4 7.5 (11:40) 4.72 (13:30) 0 0 0 0 0
03-09-2020 24.9 (15:00) 6.9 (00:00) 15.9 9.17 (00:30) 5 (00:30) 0 0 0 0 0
02-09-2020 16.8 (17:30) 8.9 (00:00) 12.8 9.44 (23:59) 4.17 (23:59) 0 0 0 0 0
01-09-2020 18.5 (14:50) 6.5 (00:00) 12.5 7.22 (17:10) 2.22 (15:10) 0 0 0 0 0
31-08-2020 15.4 (16:00) 7.7 (00:00) 11.5 8.06 (12:20) 4.17 (14:10) 0 0 0 0 0
30-08-2020 11.9 (16:20) 7.8 (00:00) 9.8 10.83 (07:40) 3.06 (16:30) 20.4 11.4 3.4 3.2 2.4
29-08-2020 14.1 (16:10) 8.7 (00:00) 11.4 7.22 (11:50) 2.78 (19:10) 19.8 0.4 0.2 1.6 17.6
28-08-2020 16.5 (00:00) 9.9 (00:00) 13.2 9.17 (03:20) 3.61 (08:50) 3.8 0 0.4 1.4 2
27-08-2020 26.5 (13:00) 11.1 (00:00) 18.8 10.28 (17:00) 5 (17:10) 0 0 0 0 0
26-08-2020 22.3 (13:50) 12.7 (00:00) 17.5 9.72 (16:20) 5.56 (15:50) 0 0 0 0 0
25-08-2020 27.8 (15:00) 9.5 (00:00) 18.6 10.83 (19:40) 5.83 (19:20) 0 0 0 0 0
24-08-2020 18.2 (18:10) 11.2 (00:00) 14.7 10.56 (02:30) 4.72 (14:40) 0 0 0 0 0
23-08-2020 18.8 (15:50) 12.5 (00:00) 15.6 9.72 (15:40) 3.61 (21:30) 0 0 0 0 0
22-08-2020 19.5 (16:40) 11.8 (00:00) 15.7 10 (00:30) 5 (00:10) 0 0 0 0 0

Gráficas

Temp. máximas Temp. mínimas Temp. medias Precipitaciones Rachas de viento máximas Velocidades máximas media en intervalos de 10 minutos

Datos horarios

Fecha y hora oficial Temperatura (ºC) Velocidad del viento (km/h) Dirección del viento Racha (km/h) Dirección de racha Precipitación (mm) Presión (hPa) Tendencia (hPa) Humedad (%)
2020-09-20 23:00:00 13.7 9 Norte 21 Nordeste 0 -- -- 93
2020-09-20 22:00:00 13.9 6 Nordeste 14 Norte 0 -- -- 95
2020-09-20 21:00:00 14.2 7 Norte 16 Nordeste 0 -- -- 96
2020-09-20 20:00:00 14.9 4 Oeste 13 Norte 0 -- -- 92
2020-09-20 19:00:00 15.8 5 Norte 18 Norte 0 -- -- 88
2020-09-20 18:00:00 16.6 13 Norte 23 Norte 0 -- -- 84
2020-09-20 17:00:00 19.3 5 Sudoeste 15 Oeste 0 -- -- 69
2020-09-20 16:00:00 19.7 3 Sur 9 Sudoeste 0 -- -- 64
2020-09-20 15:00:00 18.9 6 Sur 13 Sudoeste 0 -- -- 66
2020-09-20 14:00:00 17.1 4 Sudoeste 21 Sur 0 -- -- 74
2020-09-20 13:00:00 17.3 12 Sur 23 Sur 0 -- -- 75
2020-09-20 12:00:00 16.3 7 Sur 14 Sudoeste 0 -- -- 83
2020-09-20 11:00:00 15.2 5 Sur 12 Sur 0 -- -- 87
2020-09-20 10:00:00 13.7 4 Sudeste 8 Sudeste 0 -- -- 94
2020-09-20 09:00:00 11.3 0 Calma 5 Sudoeste 0 -- -- 100
2020-09-20 08:00:00 10.3 0 Calma 6 Norte 0 -- -- 100
2020-09-20 07:00:00 10.4 4 Norte 8 Norte 0 -- -- 100
2020-09-20 06:00:00 10.6 4 Norte 6 Norte 0 -- -- 100
2020-09-20 05:00:00 11.2 2 Norte 4 Norte 0 -- -- 100
2020-09-20 04:00:00 11.6 2 Norte 5 Norte 0 -- -- 100
2020-09-20 03:00:00 11.5 3 Norte 5 Nordeste 0 -- -- 100
2020-09-20 02:00:00 12.4 0 Calma 5 Sur 0 -- -- 100
2020-09-20 01:00:00 13 0 Calma 6 Sudoeste 0 -- -- 100
2020-09-20 00:00:00 13.1 0 Calma 5 Sudoeste 0 -- -- 100
2020-09-19 23:00:00 13.1 3 Sudoeste 10 Noroeste 0 -- -- 100
2020-09-19 22:00:00 13 0 Calma 5 Este 0 -- -- 100
2020-09-19 21:00:00 13.3 2 Sudeste 5 Este 0 -- -- 100
2020-09-19 20:00:00 13.8 0 Calma 6 Sur 0 -- -- 100
2020-09-19 19:00:00 14.1 4 Sudoeste 15 Sudoeste 0 -- -- 99
2020-09-19 18:00:00 13.9 3 Sudoeste 26 Oeste 11.4 -- -- 100
2020-09-19 17:00:00 13.3 10 Sudoeste 33 Sudoeste 10.6 -- -- 96
2020-09-19 16:00:00 16.7 18 Sur 33 Sur 0 -- -- 79
2020-09-19 15:00:00 16.1 20 Sur 38 Sudoeste 0 -- -- 80
2020-09-19 14:00:00 15.8 21 Sur 36 Sur 0.2 -- -- 86
2020-09-19 13:00:00 14.9 19 Sur 37 Sudeste 0 -- -- 86
2020-09-19 12:00:00 16.3 17 Sur 43 Sur 0 -- -- 76
2020-09-19 11:00:00 15.8 14 Sudoeste 38 Sur 0 -- -- 78
2020-09-19 10:00:00 15.7 21 Sur 44 Sur 0 -- -- 75
2020-09-19 09:00:00 14.3 14 Sur 30 Sur 0 -- -- 79
2020-09-19 08:00:00 14.5 18 Sur 54 Sur 0 -- -- 80
2020-09-19 07:00:00 15.1 17 Sur 45 Sur 0 -- -- 79
2020-09-19 06:00:00 15.2 20 Sur 41 Sur 0 -- -- 81
2020-09-19 05:00:00 15.3 18 Sur 45 Sudoeste 0 -- -- 81
2020-09-19 04:00:00 15.6 18 Sur 40 Sudoeste 0 -- -- 82
2020-09-19 03:00:00 15.5 10 Sur 33 Sur 0 -- -- 86
2020-09-19 02:00:00 15.2 8 Sur 27 Sur 0 -- -- 90
2020-09-19 01:00:00 15 10 Sur 22 Sur 0 -- -- 89
2020-09-19 00:00:00 14.6 8 Sur 22 Este 0 -- -- 92
2020-09-18 23:00:00 14.7 8 Este 23 Este 0 -- -- 90
2020-09-18 22:00:00 14.9 8 Sudeste 22 Este 0 -- -- 86
2020-09-18 21:00:00 14.5 5 Sudeste 16 Sudeste 0 -- -- 89
2020-09-18 20:00:00 15.6 4 Sudeste 27 Este 0 -- -- 85
2020-09-18 19:00:00 16.6 12 Sudeste 34 Este 0 -- -- 81
2020-09-18 18:00:00 20.1 17 Sur 31 Sur 0 -- -- 63
2020-09-18 17:00:00 20.5 13 Sur 30 Sudoeste 0 -- -- 57
2020-09-18 16:00:00 21.3 17 Sur 42 Sudeste 0 -- -- 56
2020-09-18 15:00:00 20.5 17 Sur 44 Sudoeste 0 -- -- 65
2020-09-18 14:00:00 20.2 18 Sur 49 Sur 0 -- -- 64
2020-09-18 13:00:00 19.5 19 Sur 34 Sur 0 -- -- 65
2020-09-18 12:00:00 19.4 18 Sur 39 Sur 0 -- -- 67
2020-09-18 11:00:00 17.9 21 Sur 39 Sudoeste 0 -- -- 72
2020-09-18 10:00:00 18.1 17 Sur 31 Sudeste 0 -- -- 65
2020-09-18 09:00:00 17.4 7 Sur 22 Sur 0 -- -- 68
2020-09-18 08:00:00 16.5 7 Sudeste 28 Sudeste 0.4 -- -- 72
2020-09-18 07:00:00 18.3 11 Sudeste 24 Sudeste 0 -- -- 61
2020-09-18 06:00:00 19.3 10 Sur 31 Sudeste 0 -- -- 54
2020-09-18 05:00:00 19.7 10 Sudeste 36 Este 0 -- -- 50
2020-09-18 04:00:00 20 11 Sur 30 Sur 0 -- -- 52
2020-09-18 03:00:00 20.6 10 Sur 32 Este 0 -- -- 52
2020-09-18 02:00:00 21.1 12 Sur 32 Sur 0 -- -- 52
2020-09-18 01:00:00 21.3 15 Sur 32 Sur 0 -- -- 48
2020-09-18 00:00:00 21 10 Sur 27 Sur 0 -- -- 49
2020-09-17 23:00:00 20.7 9 Sur 23 Sur 0 -- -- 50
2020-09-17 22:00:00 18.7 2 Norte 6 Nordeste 0 -- -- 60
2020-09-17 21:00:00 18.2 3 Norte 9 Nordeste 0 -- -- 65
2020-09-17 20:00:00 20.6 5 Nordeste 16 Sudeste 0 -- -- 55
2020-09-17 19:00:00 23.4 6 Sur 27 Sudoeste 0 -- -- 48
2020-09-17 18:00:00 24.7 15 Sur 40 Sur 0 -- -- 42
2020-09-17 17:00:00 24.9 12 Sur 33 Sur 0 -- -- 41
2020-09-17 16:00:00 25.6 16 Sur 39 Sudeste 0 -- -- 40
2020-09-17 15:00:00 25.9 14 Sur 33 Sudoeste 0 -- -- 41
2020-09-17 14:00:00 25.2 13 Sur 28 Sudeste 0 -- -- 48
2020-09-17 13:00:00 23.1 4 Este 12 Este 0 -- -- 53
2020-09-17 12:00:00 21.1 0 Calma 6 Nordeste 0 -- -- 62
2020-09-17 11:00:00 20.9 2 Norte 4 Nordeste 0 -- -- 65
2020-09-17 10:00:00 19.2 2 Noroeste 8 Nordeste 0 -- -- 76
2020-09-17 09:00:00 17.3 2 Oeste 5 Este 0 -- -- 80
2020-09-17 08:00:00 15.8 3 Noroeste 8 Norte 0 -- -- 80
2020-09-17 07:00:00 15.4 2 Noroeste 7 Noroeste 0 -- -- 81
2020-09-17 06:00:00 15.1 2 Noroeste 7 Nordeste 0 -- -- 83
2020-09-17 05:00:00 14.1 0 Calma 3 Noroeste 0 -- -- 88
2020-09-17 04:00:00 14.4 0 Calma 5 Norte 0 -- -- 89
2020-09-17 03:00:00 14.8 0 Calma 6 Norte 0 -- -- 87
2020-09-17 02:00:00 15.5 0 Calma 6 Nordeste 0 -- -- 84
2020-09-17 01:00:00 16.9 3 Sudeste 14 Nordeste 0 -- -- 76
2020-09-17 00:00:00 19.2 6 Norte 15 Nordeste 0 -- -- 67
2020-09-16 23:00:00 17.6 2 Noroeste 21 Este 0 -- -- 75
2020-09-16 22:00:00 21.1 8 Nordeste 19 Este 0 -- -- 57
2020-09-16 21:00:00 19.5 4 Este 18 Este 0 -- -- 67
2020-09-16 20:00:00 21.3 4 Nordeste 17 Nordeste 0 -- -- 60
2020-09-16 19:00:00 22.9 4 Norte 14 Noroeste 0 -- -- 59
2020-09-16 18:00:00 23.6 10 Noroeste 26 Norte 0 -- -- 56
2020-09-16 17:00:00 24.7 11 Norte 27 Norte 0 -- -- 57
2020-09-16 16:00:00 25.5 10 Norte 23 Norte 0 -- -- 55
2020-09-16 15:00:00 24.9 8 Norte 20 Norte 0 -- -- 54
2020-09-16 14:00:00 25 8 Norte 19 Nordeste 0 -- -- 53
2020-09-16 13:00:00 25.7 6 Sudoeste 13 Sur 0 -- -- 50
2020-09-16 12:00:00 24.6 4 Sur 9 Sudeste 0 -- -- 56
2020-09-16 11:00:00 23 0 Calma 4 Sudeste 0 -- -- 59
2020-09-16 10:00:00 20.2 0 Calma 2 Sudeste 0 -- -- 72
2020-09-16 09:00:00 15.9 0 Calma 2 Oeste 0 -- -- 91
2020-09-16 08:00:00 12.8 0 Calma 2 Nordeste 0 -- -- 98
2020-09-16 07:00:00 13.3 0 Calma 3 Norte 0 -- -- 95
2020-09-16 06:00:00 13.1 0 Calma 2 Norte 0 -- -- 96
2020-09-16 05:00:00 13.1 0 Calma 2 Norte 0 -- -- 95
2020-09-16 04:00:00 13.1 0 Calma 3 Noroeste 0 -- -- 96
2020-09-16 03:00:00 13.3 0 Calma 3 Noroeste 0 -- -- 94
2020-09-16 02:00:00 13.7 0 Calma 3 Norte 0 -- -- 93
2020-09-16 01:00:00 14.2 2 Nordeste 5 Norte 0 -- -- 91
2020-09-16 00:00:00 14.6 0 Calma 4 Noroeste 0 -- -- 89
2020-09-15 23:00:00 15.2 0 Calma 4 Noroeste 0 -- -- 89
2020-09-15 22:00:00 16.2 3 Sudoeste 15 Norte 0 -- -- 85
2020-09-15 21:00:00 18.5 4 Norte 11 Norte 0 -- -- 75
2020-09-15 20:00:00 20.6 8 Norte 19 Norte 0 -- -- 67
2020-09-15 19:00:00 21.4 12 Norte 26 Norte 0 -- -- 68
2020-09-15 18:00:00 22.3 13 Norte 27 Norte 0 -- -- 66
2020-09-15 17:00:00 24.9 11 Norte 28 Sur 0 -- -- 58
2020-09-15 16:00:00 25.7 10 Sur 25 Sur 0 -- -- 45
2020-09-15 15:00:00 25.3 8 Sur 21 Sur 0 -- -- 47
2020-09-15 14:00:00 24.3 9 Sudoeste 26 Sur 0 -- -- 49
2020-09-15 13:00:00 23 13 Sur 28 Sur 0 -- -- 55
2020-09-15 12:00:00 22.6 14 Sur 25 Sur 0 -- -- 57
2020-09-15 11:00:00 21 6 Sur 14 Sudeste 0 -- -- 66
2020-09-15 10:00:00 18 4 Este 13 Este 0 -- -- 77
2020-09-15 09:00:00 14.3 2 Norte 5 Este 0 -- -- 97
2020-09-15 08:00:00 13.7 2 Oeste 8 Oeste 0 -- -- 95
2020-09-15 07:00:00 14.1 3 Noroeste 9 Nordeste 0 -- -- 93
2020-09-15 06:00:00 14 4 Norte 18 Este 0.4 -- -- 95
2020-09-15 05:00:00 15.1 5 Nordeste 27 Este 1 -- -- 86
2020-09-15 04:00:00 19.6 12 Sur 32 Sur 0 -- -- 57
2020-09-15 03:00:00 20.6 8 Este 21 Este 0 -- -- 50
2020-09-15 02:00:00 21 7 Este 16 Sudeste 0 -- -- 46
2020-09-15 01:00:00 19.3 2 Norte 9 Este 0 -- -- 55
2020-09-15 00:00:00 18.4 2 Norte 11 Oeste 0 -- -- 61
2020-09-14 23:00:00 21.1 4 Este 15 Nordeste 0 -- -- 52
2020-09-14 22:00:00 20.4 2 Norte 6 Nordeste 0 -- -- 50
2020-09-14 21:00:00 20.5 3 Nordeste 5 Norte 0 -- -- 51
2020-09-14 20:00:00 20.7 2 Noroeste 6 Sur 0 -- -- 55
2020-09-14 19:00:00 24.7 5 Sudoeste 26 Sur 0 -- -- 39
2020-09-14 18:00:00 27 12 Sur 28 Oeste 0 -- -- 35
2020-09-14 17:00:00 27.7 17 Sur 29 Sudoeste 0 -- -- 33
2020-09-14 16:00:00 28.2 16 Sur 34 Sur 0 -- -- 32
2020-09-14 15:00:00 28 17 Sur 30 Sudoeste 0 -- -- 34
2020-09-14 14:00:00 26.7 17 Sur 30 Sur 0 -- -- 36
2020-09-14 13:00:00 26.2 15 Sur 32 Sur 0 -- -- 40
2020-09-14 12:00:00 24.8 15 Sur 29 Sur 0 -- -- 43
2020-09-14 11:00:00 23.9 11 Sur 17 Sur 0 -- -- 49
2020-09-14 10:00:00 21.8 5 Sudeste 13 Sudeste 0 -- -- 50
2020-09-14 09:00:00 19.5 4 Este 10 Sudeste 0 -- -- 57
2020-09-14 08:00:00 16.1 3 Noroeste 8 Este 0 -- -- 66
2020-09-14 07:00:00 18.2 3 Nordeste 14 Sudeste 0 -- -- 57
2020-09-14 06:00:00 18 3 Norte 11 Este 0 -- -- 57
2020-09-14 05:00:00 18 3 Norte 10 Sudeste 0 -- -- 56
2020-09-14 04:00:00 18.8 5 Este 17 Este 0 -- -- 53
2020-09-14 03:00:00 18.7 4 Nordeste 11 Sudeste 0 -- -- 52
2020-09-14 02:00:00 18.9 3 Nordeste 10 Nordeste 0 -- -- 53
2020-09-14 01:00:00 18.7 3 Norte 8 Este 0 -- -- 54
2020-09-14 00:00:00 20.1 3 Este 16 Sudeste 0 -- -- 52
2020-09-13 23:00:00 19.4 3 Norte 6 Este 0 -- -- 56
2020-09-13 22:00:00 19.4 4 Noroeste 8 Noroeste 0 -- -- 58
2020-09-13 21:00:00 18.9 4 Noroeste 8 Norte 0 -- -- 57
2020-09-13 20:00:00 19.6 5 Norte 8 Norte 0 -- -- 57
2020-09-13 19:00:00 22.9 3 Norte 15 Sur 0 -- -- 50
2020-09-13 18:00:00 27.9 8 Sur 20 Sudeste 0 -- -- 36
2020-09-13 17:00:00 28 12 Sur 23 Sudeste 0 -- -- 34
2020-09-13 16:00:00 27.8 10 Sudoeste 29 Sudoeste 0 -- -- 37
2020-09-13 15:00:00 27.2 17 Sur 26 Sur 0 -- -- 41
2020-09-13 14:00:00 26.5 17 Sur 28 Sur 0 -- -- 41
2020-09-13 13:00:00 25.6 14 Sur 28 Sur 0 -- -- 48
2020-09-13 12:00:00 24.4 11 Sur 25 Sudoeste 0 -- -- 49
2020-09-13 11:00:00 23 6 Sur 13 Este 0 -- -- 57
2020-09-13 10:00:00 21 3 Sudeste 8 Sur 0 -- -- 60
2020-09-13 09:00:00 17.6 0 Calma 5 Sur 0 -- -- 69
2020-09-13 08:00:00 15 2 Norte 9 Nordeste 0 -- -- 77
2020-09-13 07:00:00 12.9 2 Noroeste 6 Nordeste 0 -- -- 88
2020-09-13 06:00:00 13.4 2 Norte 5 Norte 0 -- -- 88
2020-09-13 05:00:00 12.4 2 Noroeste 4 Noroeste 0 -- -- 99
2020-09-13 04:00:00 11.9 2 Noroeste 4 Noroeste 0 -- -- 100
2020-09-13 03:00:00 11.8 0 Calma 4 Noroeste 0 -- -- 100
2020-09-13 02:00:00 13 3 Norte 4 Norte 0 -- -- 97
2020-09-13 01:00:00 13.3 0 Calma 6 Oeste 0 -- -- 96
2020-09-13 00:00:00 14.4 0 Calma 13 Nordeste 0 -- -- 93
2020-09-12 23:00:00 17.2 6 Nordeste 23 Norte 0 -- -- 80
2020-09-12 22:00:00 18 8 Norte 24 Norte 0 -- -- 78
2020-09-12 21:00:00 18.4 9 Norte 25 Noroeste 0 -- -- 78
2020-09-12 20:00:00 18.4 13 Norte 28 Norte 0 -- -- 83
2020-09-12 19:00:00 20 11 Norte 26 Noroeste 0 -- -- 72
2020-09-12 18:00:00 20.8 13 Norte 29 Norte 0 -- -- 72
2020-09-12 17:00:00 20.8 13 Norte 30 Norte 0 -- -- 74
2020-09-12 16:00:00 20.6 16 Norte 31 Norte 0 -- -- 75
2020-09-12 15:00:00 20.3 15 Norte 33 Norte 0 -- -- 79
2020-09-12 14:00:00 20.6 13 Norte 28 Nordeste 0 -- -- 75
2020-09-12 13:00:00 21.3 11 Norte 22 Norte 0 -- -- 69
2020-09-12 12:00:00 21.3 8 Nordeste 16 Nordeste 0 -- -- 64
2020-09-12 11:00:00 19.6 8 Norte 17 Nordeste 0 -- -- 71
2020-09-12 10:00:00 16.3 4 Sur 5 Sur 0 -- -- 91
2020-09-12 09:00:00 13.6 0 Calma 4 Nordeste 0 -- -- 100
2020-09-12 08:00:00 11.5 0 Calma 4 Noroeste 0 -- -- 100
2020-09-12 07:00:00 11.9 2 Noroeste 5 Sudoeste 0 -- -- 100
2020-09-12 06:00:00 12.1 2 Oeste 5 Noroeste 0 -- -- 100
2020-09-12 05:00:00 12.5 2 Noroeste 4 Noroeste 0 -- -- 100
2020-09-12 04:00:00 12.5 2 Noroeste 6 Sudoeste 0 -- -- 100
2020-09-12 03:00:00 12.6 0 Calma 12 Este 0 -- -- 100
2020-09-12 02:00:00 13.5 0 Calma 20 Nordeste 0 -- -- 94
2020-09-12 01:00:00 16.1 8 Norte 30 Norte 0 -- -- 87
2020-09-12 00:00:00 15.9 12 Norte 32 Norte 0 -- -- 85
2020-09-11 23:00:00 16.1 17 Norte 37 Noroeste 0 -- -- 88
2020-09-11 22:00:00 16.4 12 Norte 27 Noroeste 0 -- -- 95
2020-09-11 21:00:00 16.8 12 Noroeste 24 Noroeste 0 -- -- 96
2020-09-11 20:00:00 17.6 8 Norte 23 Norte 0 -- -- 92
2020-09-11 19:00:00 19.4 5 Nordeste 23 Este 0 -- -- 77
2020-09-11 18:00:00 20.5 6 Norte 31 Noroeste 0 -- -- 74
2020-09-11 17:00:00 19.8 12 Norte 31 Norte 0 -- -- 78
2020-09-11 16:00:00 18.9 17 Norte 32 Noroeste 0 -- -- 83
2020-09-11 15:00:00 19.1 13 Norte 31 Norte 0 -- -- 82
2020-09-11 14:00:00 18.6 14 Norte 37 Norte 0 -- -- 83
2020-09-11 13:00:00 17.3 18 Norte 32 Norte 0 -- -- 87
2020-09-11 12:00:00 17.2 13 Nordeste 26 Nordeste 0 -- -- 87
2020-09-11 11:00:00 16 10 Norte 23 Norte 0 -- -- 91
2020-09-11 10:00:00 16.4 9 Norte 26 Norte 0 -- -- 86
2020-09-11 09:00:00 15.6 7 Norte 20 Norte 0 -- -- 88
2020-09-11 08:00:00 14 4 Noroeste 18 Nordeste 0 -- -- 95
2020-09-11 07:00:00 14.3 6 Norte 19 Noroeste 0 -- -- 96
2020-09-11 06:00:00 14.2 8 Norte 25 Norte 0 -- -- 98
2020-09-11 05:00:00 13.9 12 Noroeste 28 Norte 0 -- -- 99
2020-09-11 04:00:00 14.1 15 Noroeste 32 Noroeste 0 -- -- 96
2020-09-11 03:00:00 14.3 15 Norte 30 Norte 0 -- -- 93
2020-09-11 02:00:00 13.6 3 Sudoeste 13 Este 0 -- -- 96
2020-09-11 01:00:00 13.4 5 Sudoeste 13 Oeste 0 -- -- 94
2020-09-11 00:00:00 13.3 4 Sudoeste 15 Sudoeste 0 -- -- 92
2020-09-10 23:00:00 13.4 4 Noroeste 15 Noroeste 0 -- -- 94
2020-09-10 22:00:00 14.4 4 Noroeste 17 Nordeste 0 -- -- 88
2020-09-10 21:00:00 14.9 7 Este 18 Sudeste 0 -- -- 91
2020-09-10 20:00:00 16.2 5 Sudeste 24 Noroeste 0 -- -- 85
2020-09-10 19:00:00 18.2 6 Noroeste 25 Noroeste 0 -- -- 77
2020-09-10 18:00:00 19.2 12 Norte 25 Norte 0 -- -- 69
2020-09-10 17:00:00 20.1 7 Noroeste 25 Norte 0 -- -- 65
2020-09-10 16:00:00 20 9 Noroeste 28 Norte 0 -- -- 58
2020-09-10 15:00:00 20.2 8 Oeste 24 Noroeste 0 -- -- 58
2020-09-10 14:00:00 19.3 12 Noroeste 27 Norte 0 -- -- 58
2020-09-10 13:00:00 20 8 Norte 24 Este 0 -- -- 57
2020-09-10 12:00:00 19.2 7 Sudoeste 18 Noroeste 0 -- -- 57
2020-09-10 11:00:00 18.2 8 Oeste 21 Noroeste 0 -- -- 59
2020-09-10 10:00:00 17.6 6 Noroeste 21 Noroeste 0 -- -- 57
2020-09-10 09:00:00 16.4 5 Noroeste 19 Noroeste 0 -- -- 61
2020-09-10 08:00:00 14.8 6 Noroeste 21 Norte 0 -- -- 67
2020-09-10 07:00:00 14.5 5 Noroeste 15 Noroeste 0 -- -- 70
2020-09-10 06:00:00 13.7 5 Noroeste 12 Norte 0 -- -- 77
2020-09-10 05:00:00 12.5 4 Norte 18 Norte 0 -- -- 84
2020-09-10 04:00:00 15.2 8 Noroeste 18 Noroeste 0 -- -- 69
2020-09-10 03:00:00 15.2 6 Noroeste 15 Noroeste 0 -- -- 68
2020-09-10 02:00:00 13.4 4 Noroeste 13 Noroeste 0 -- -- 76
2020-09-10 01:00:00 14.1 4 Noroeste 17 Noroeste 0 -- -- 70
2020-09-10 00:00:00 13.4 5 Noroeste 22 Norte 0 -- -- 75
2020-09-09 23:00:00 15.3 9 Noroeste 21 Noroeste 0 -- -- 62
2020-09-09 22:00:00 14.2 6 Noroeste 15 Noroeste 0 -- -- 74
2020-09-09 21:00:00 15.2 3 Noroeste 19 Norte 0 -- -- 83
2020-09-09 20:00:00 17 6 Noroeste 22 Noroeste 0 -- -- 81
2020-09-09 19:00:00 19 12 Norte 22 Noroeste 0 -- -- 72
2020-09-09 18:00:00 21.5 8 Este 27 Sudeste 0 -- -- 53
2020-09-09 17:00:00 21.4 14 Este 38 Este 0 -- -- 56
2020-09-09 16:00:00 20.8 10 Noroeste 33 Noroeste 0 -- -- 56
2020-09-09 15:00:00 20.2 12 Norte 26 Nordeste 0 -- -- 58
2020-09-09 14:00:00 20.4 10 Nordeste 35 Este 0 -- -- 59
2020-09-09 13:00:00 19.7 11 Norte 31 Norte 0 -- -- 61
2020-09-09 12:00:00 18.6 11 Norte 27 Norte 0 -- -- 61
2020-09-09 11:00:00 18 12 Norte 23 Norte 0 -- -- 62
2020-09-09 10:00:00 16.5 6 Norte 15 Norte 0 -- -- 74
2020-09-09 09:00:00 11.9 0 Calma 3 Nordeste 0 -- -- 95
2020-09-09 08:00:00 8.5 0 Calma 3 Noroeste 0 -- -- 100
2020-09-09 07:00:00 8.6 0 Calma 2 Norte 0 -- -- 100
2020-09-09 06:00:00 8.7 0 Calma 2 Norte 0 -- -- 100
2020-09-09 05:00:00 8.5 0 Calma 4 Norte 0 -- -- 100
2020-09-09 04:00:00 8.9 2 Noroeste 3 Norte 0 -- -- 100
2020-09-09 03:00:00 9.1 0 Calma 3 Noroeste 0 -- -- 100
2020-09-09 02:00:00 9 0 Calma 4 Noroeste 0 -- -- 96
2020-09-09 01:00:00 9.7 3 Noroeste 4 Noroeste 0 -- -- 95
2020-09-09 00:00:00 10 0 Calma 3 Norte 0 -- -- 93
2020-09-08 23:00:00 11 3 Norte 5 Oeste 0 -- -- 88
2020-09-08 22:00:00 11.7 3 Noroeste 17 Nordeste 0 -- -- 87
2020-09-08 21:00:00 14.9 7 Norte 18 Norte 0 -- -- 67
2020-09-08 20:00:00 15.7 9 Norte 26 Norte 0 -- -- 66
2020-09-08 19:00:00 17 12 Norte 27 Norte 0 -- -- 60
2020-09-08 18:00:00 17.6 13 Norte 29 Noroeste 0 -- -- 59
2020-09-08 17:00:00 17.5 15 Norte 31 Noroeste 0 -- -- 59
2020-09-08 16:00:00 17.7 14 Norte 29 Noroeste 0 -- -- 59
2020-09-08 15:00:00 17.3 14 Norte 27 Norte 0 -- -- 64
2020-09-08 14:00:00 16.9 14 Norte 23 Norte 0 -- -- 66
2020-09-08 13:00:00 16.8 12 Norte 23 Noroeste 0 -- -- 60
2020-09-08 12:00:00 16.2 11 Norte 23 Noroeste 0 -- -- 58
2020-09-08 11:00:00 15.7 9 Norte 15 Nordeste 0 -- -- 59
2020-09-08 10:00:00 14.6 4 Este 11 Norte 0 -- -- 69
2020-09-08 09:00:00 11.3 0 Calma 5 Noroeste 0 -- -- 80
2020-09-08 08:00:00 8.1 3 Noroeste 13 Nordeste 0 -- -- 92
2020-09-08 07:00:00 8.4 3 Sudoeste 18 Este 0 -- -- 89
2020-09-08 06:00:00 8.9 2 Norte 18 Norte 0 -- -- 89
2020-09-08 05:00:00 10.9 7 Norte 23 Noroeste 0 -- -- 78
2020-09-08 04:00:00 10.7 9 Norte 24 Noroeste 0 -- -- 79
2020-09-08 03:00:00 10.3 9 Noroeste 22 Norte 0 -- -- 88
2020-09-08 02:00:00 10 3 Noroeste 21 Este 0 -- -- 92
2020-09-08 01:00:00 10.4 9 Este 37 Este 0 -- -- 93
2020-09-08 00:00:00 10.5 7 Este 22 Nordeste 0 -- -- 95
2020-09-07 23:00:00 10.5 6 Este 19 Este 0 -- -- 94
2020-09-07 22:00:00 10.5 6 Este 20 Este 0 -- -- 93
2020-09-07 21:00:00 11.1 10 Este 33 Este 0 -- -- 90
2020-09-07 20:00:00 12 8 Sudeste 25 Este 0 -- -- 84
2020-09-07 19:00:00 12.8 8 Este 35 Noroeste 0 -- -- 79
2020-09-07 18:00:00 14 8 Sudeste 44 Noroeste 0 -- -- 69
2020-09-07 17:00:00 14.6 10 Oeste 36 Noroeste 0 -- -- 61
2020-09-07 16:00:00 14.5 7 Sudoeste 32 Noroeste 0 -- -- 64
2020-09-07 15:00:00 13.4 9 Sudoeste 36 Noroeste 0 -- -- 67
2020-09-07 14:00:00 13.1 9 Oeste 41 Norte 0 -- -- 71
2020-09-07 13:00:00 12.4 8 Este 32 Este 0 -- -- 76
2020-09-07 12:00:00 12.1 7 Sur 28 Este 0 -- -- 79
2020-09-07 11:00:00 11.4 9 Este 26 Nordeste 0 -- -- 81
2020-09-07 10:00:00 9.6 5 Noroeste 24 Este 0 -- -- 92
2020-09-07 09:00:00 8.7 4 Sudeste 23 Este 0 -- -- 96
2020-09-07 08:00:00 8.1 6 Sudeste 18 Este 0 -- -- 98
2020-09-07 07:00:00 8.2 5 Sur 14 Sudeste 0 -- -- 97
2020-09-07 06:00:00 8.3 6 Noroeste 25 Noroeste 0 -- -- 98
2020-09-07 05:00:00 8.5 4 Oeste 22 Noroeste 0 -- -- 98
2020-09-07 04:00:00 8.7 9 Noroeste 28 Norte 0 -- -- 98
2020-09-07 03:00:00 9.2 7 Sur 21 Norte 0 -- -- 97
2020-09-07 02:00:00 9.4 6 Oeste 35 Oeste 0 -- -- 97
2020-09-07 01:00:00 9.6 8 Sur 19 Sur 0 -- -- 95
2020-09-07 00:00:00 9.7 8 Sur 23 Sudeste 0 -- -- 96
2020-09-06 23:00:00 9.9 8 Sur 23 Sudeste 0 -- -- 95
2020-09-06 22:00:00 10.4 9 Sur 27 Norte 0 -- -- 94
2020-09-06 21:00:00 10.8 8 Sudeste 28 Este 0 -- -- 91
2020-09-06 20:00:00 11.6 6 Sur 22 Sur 0 -- -- 86
2020-09-06 19:00:00 12.2 6 Sur 25 Este 0 -- -- 89
2020-09-06 18:00:00 13.4 10 Sudeste 24 Sudeste 0 -- -- 83
2020-09-06 17:00:00 14.3 7 Sudoeste 28 Este 0 -- -- 76
2020-09-06 16:00:00 15.2 8 Sudoeste 29 Sudeste 0 -- -- 70
2020-09-06 15:00:00 14.7 6 Sudoeste 28 Sudeste 0 -- -- 79
2020-09-06 14:00:00 14.3 8 Sudeste 21 Sudeste 0 -- -- 77
2020-09-06 13:00:00 13 7 Sudoeste 28 Este 0 -- -- 83
2020-09-06 12:00:00 12.5 7 Sudoeste 22 Sur 0 -- -- 91
2020-09-06 11:00:00 11 8 Oeste 22 Oeste 0 -- -- 96
2020-09-06 10:00:00 10.9 8 Sudoeste 24 Sudoeste 0 -- -- 100
2020-09-06 09:00:00 10.9 7 Sudoeste 19 Sur 0 -- -- 100
2020-09-06 08:00:00 11 5 Sudoeste 19 Sur 0.2 -- -- 100
2020-09-06 07:00:00 11 5 Sur 17 Sudoeste 0 -- -- 100
2020-09-06 06:00:00 11 5 Sur 19 Nordeste 0.2 -- -- 100
2020-09-06 05:00:00 11.2 6 Sudeste 21 Sudeste 0.4 -- -- 100
2020-09-06 04:00:00 11.5 12 Sudeste 28 Este 0.2 -- -- 100
2020-09-06 03:00:00 11.7 8 Sudeste 21 Este 0.2 -- -- 100
2020-09-06 02:00:00 11.7 9 Sudeste 30 Este 0.2 -- -- 100
2020-09-06 01:00:00 12 10 Este 28 Sudeste 0.4 -- -- 100
2020-09-06 00:00:00 12.3 8 Este 20 Este 0.2 -- -- 100
2020-09-05 23:00:00 12.7 8 Sudeste 21 Este 0.6 -- -- 100
2020-09-05 22:00:00 13.1 7 Sur 15 Sudeste 0.2 -- -- 100
2020-09-05 21:00:00 13.4 6 Sudeste 24 Este 0 -- -- 100
2020-09-05 20:00:00 13.8 8 Este 24 Este 0 -- -- 99
2020-09-05 19:00:00 14.5 7 Este 24 Este 0 -- -- 97
2020-09-05 18:00:00 15.1 6 Sudeste 26 Nordeste 0 -- -- 96
2020-09-05 17:00:00 15.8 8 Sudeste 31 Este 0 -- -- 93
2020-09-05 16:00:00 15.5 7 Sudeste 24 Este 0 -- -- 94
2020-09-05 15:00:00 15.4 4 Sudoeste 24 Noroeste 0 -- -- 95
2020-09-05 14:00:00 16.2 7 Norte 21 Norte 0 -- -- 91
2020-09-05 13:00:00 16.9 7 Norte 24 Noroeste 0 -- -- 88
2020-09-05 12:00:00 19.2 5 Sudeste 28 Norte 0 -- -- 77
2020-09-05 11:00:00 16.8 17 Norte 27 Norte 0 -- -- 84
2020-09-05 10:00:00 16.3 10 Nordeste 28 Norte 0 -- -- 87
2020-09-05 09:00:00 15.4 8 Nordeste 22 Nordeste 0 -- -- 89
2020-09-05 08:00:00 11.7 0 Calma 7 Este 0 -- -- 98
2020-09-05 07:00:00 11.5 0 Calma 4 Noroeste 0 -- -- 98
2020-09-05 06:00:00 11.9 0 Calma 3 Norte 0 -- -- 96
2020-09-05 05:00:00 12.5 0 Calma 3 Noroeste 0 -- -- 90
2020-09-05 04:00:00 11.8 0 Calma 4 Nordeste 0 -- -- 88
2020-09-05 03:00:00 13.3 0 Calma 2 Norte 0 -- -- 82
2020-09-05 02:00:00 13.8 0 Calma 4 Noroeste 0 -- -- 78
2020-09-05 01:00:00 13.8 0 Calma 3 Norte 0 -- -- 78
2020-09-05 00:00:00 14.2 0 Calma 2 Norte 0 -- -- 75
2020-09-04 23:00:00 15.5 2 Noroeste 3 Norte 0 -- -- 68
2020-09-04 22:00:00 16.4 2 Noroeste 4 Norte 0 -- -- 61
2020-09-04 21:00:00 17.6 2 Noroeste 8 Norte 0 -- -- 56
2020-09-04 20:00:00 19.4 5 Norte 8 Norte 0 -- -- 54
2020-09-04 19:00:00 23 3 Noroeste 14 Sudoeste 0 -- -- 45
2020-09-04 18:00:00 27.8 6 Sudoeste 17 Oeste 0 -- -- 37
2020-09-04 17:00:00 27.3 12 Sur 24 Sur 0 -- -- 32
2020-09-04 16:00:00 27.2 14 Sur 26 Sur 0 -- -- 31
2020-09-04 15:00:00 26.6 15 Sur 24 Sur 0 -- -- 34
2020-09-04 14:00:00 25.3 15 Sur 26 Sur 0 -- -- 37
2020-09-04 13:00:00 24.8 14 Sur 25 Sur 0 -- -- 39
2020-09-04 12:00:00 23.3 13 Sur 27 Sur 0 -- -- 44
2020-09-04 11:00:00 21.4 7 Sudeste 12 Sur 0 -- -- 51
2020-09-04 10:00:00 19.7 2 Nordeste 9 Sudeste 0 -- -- 54
2020-09-04 09:00:00 16.3 2 Nordeste 5 Sudeste 0 -- -- 63
2020-09-04 08:00:00 12 2 Noroeste 5 Noroeste 0 -- -- 83
2020-09-04 07:00:00 12.4 0 Calma 6 Norte 0 -- -- 82
2020-09-04 06:00:00 12.2 2 Noroeste 4 Noroeste 0 -- -- 84
2020-09-04 05:00:00 12.4 2 Noroeste 5 Noroeste 0 -- -- 84
2020-09-04 04:00:00 11.3 0 Calma 4 Noroeste 0 -- -- 92
2020-09-04 03:00:00 10.9 0 Calma 4 Sudoeste 0 -- -- 96
2020-09-04 02:00:00 11.5 0 Calma 3 Noroeste 0 -- -- 97
2020-09-04 01:00:00 11.9 0 Calma 3 Noroeste 0 -- -- 96
2020-09-04 00:00:00 12.5 0 Calma 4 Norte 0 -- -- 91
2020-09-03 23:00:00 12.8 0 Calma 4 Norte 0 -- -- 93
2020-09-03 22:00:00 13.7 2 Noroeste 5 Norte 0 -- -- 91
2020-09-03 21:00:00 15.4 3 Noroeste 20 Norte 0 -- -- 85
2020-09-03 20:00:00 18.5 11 Norte 23 Norte 0 -- -- 68
2020-09-03 19:00:00 20.3 12 Norte 24 Norte 0 -- -- 66
2020-09-03 18:00:00 21.2 12 Norte 24 Norte 0 -- -- 64
2020-09-03 17:00:00 22.1 12 Norte 24 Norte 0 -- -- 62
2020-09-03 16:00:00 23.1 9 Norte 19 Norte 0 -- -- 59
2020-09-03 15:00:00 24.9 3 Nordeste 15 Sudoeste 0 -- -- 43
2020-09-03 14:00:00 23.3 5 Oeste 15 Sur 0 -- -- 44
2020-09-03 13:00:00 22.6 5 Sudoeste 14 Sur 0 -- -- 49
2020-09-03 12:00:00 21.3 5 Sudeste 14 Sudeste 0 -- -- 51
2020-09-03 11:00:00 19.8 4 Sudeste 9 Sudeste 0 -- -- 60
2020-09-03 10:00:00 15.1 0 Calma 4 Nordeste 0 -- -- 85
2020-09-03 09:00:00 10.8 0 Calma 2 Noroeste 0 -- -- 100
2020-09-03 08:00:00 7.7 0 Calma 2 Noroeste 0 -- -- 100
2020-09-03 07:00:00 6.9 0 Calma 2 Noroeste 0 -- -- 100
2020-09-03 06:00:00 7.5 2 Norte 3 Noroeste 0 -- -- 100
2020-09-03 05:00:00 7.2 0 Calma 4 Norte 0 -- -- 100
2020-09-03 04:00:00 7.5 0 Calma 4 Noroeste 0 -- -- 99
2020-09-03 03:00:00 8.2 2 Norte 11 Sudoeste 0 -- -- 97
2020-09-03 02:00:00 9.6 4 Noroeste 33 Nordeste 0 -- -- 90
2020-09-03 01:00:00 11.6 14 Norte 33 Norte 0 -- -- 81
2020-09-03 00:00:00 11.9 15 Norte 34 Norte 0 -- -- 79
2020-09-02 23:00:00 12.3 5 Sudeste 28 Nordeste 0 -- -- 76
2020-09-02 22:00:00 11.9 12 Nordeste 24 Nordeste 0 -- -- 83
2020-09-02 21:00:00 12.1 10 Nordeste 22 Nordeste 0 -- -- 84
2020-09-02 20:00:00 13.6 6 Norte 21 Oeste 0 -- -- 75
2020-09-02 19:00:00 15.8 8 Oeste 32 Noroeste 0 -- -- 59
2020-09-02 18:00:00 16.3 9 Noroeste 29 Noroeste 0 -- -- 58
2020-09-02 17:00:00 16.7 9 Noroeste 30 Noroeste 0 -- -- 58
2020-09-02 16:00:00 16.4 12 Norte 33 Norte 0 -- -- 59
2020-09-02 15:00:00 16.3 13 Norte 32 Noroeste 0 -- -- 59
2020-09-02 14:00:00 15.6 14 Norte 31 Noroeste 0 -- -- 60
2020-09-02 13:00:00 15.6 9 Noroeste 31 Norte 0 -- -- 63
2020-09-02 12:00:00 15.6 6 Noroeste 31 Oeste 0 -- -- 65
2020-09-02 11:00:00 14.7 12 Este 32 Este 0 -- -- 63
2020-09-02 10:00:00 13.6 9 Nordeste 21 Noroeste 0 -- -- 69
2020-09-02 09:00:00 12.2 4 Nordeste 17 Noroeste 0 -- -- 75
2020-09-02 08:00:00 10.2 8 Noroeste 19 Norte 0 -- -- 86
2020-09-02 07:00:00 9.6 5 Noroeste 15 Noroeste 0 -- -- 90
2020-09-02 06:00:00 9.4 3 Oeste 22 Noroeste 0 -- -- 94
2020-09-02 05:00:00 10.5 7 Noroeste 23 Noroeste 0 -- -- 91
2020-09-02 04:00:00 9.9 4 Noroeste 11 Noroeste 0 -- -- 96
2020-09-02 03:00:00 9.8 2 Este 15 Este 0 -- -- 96
2020-09-02 02:00:00 11 5 Este 14 Este 0 -- -- 94
2020-09-02 01:00:00 11.5 5 Sudeste 26 Este 0 -- -- 92
2020-09-02 00:00:00 12 6 Sudeste 16 Sudeste 0 -- -- 93
2020-09-01 23:00:00 12.4 4 Sur 17 Este 0 -- -- 92
2020-09-01 22:00:00 12.7 4 Sudeste 18 Sudeste 0 -- -- 92
2020-09-01 21:00:00 13.3 5 Sur 15 Este 0 -- -- 91
2020-09-01 20:00:00 14.1 4 Sur 20 Noroeste 0 -- -- 86
2020-09-01 19:00:00 15.8 6 Noroeste 22 Noroeste 0 -- -- 63
2020-09-01 18:00:00 16.2 5 Sur 26 Noroeste 0 -- -- 67
2020-09-01 17:00:00 18.2 7 Sudeste 26 Este 0 -- -- 59
2020-09-01 16:00:00 17.9 6 Norte 22 Nordeste 0 -- -- 61
2020-09-01 15:00:00 18 6 Norte 21 Noroeste 0 -- -- 57
2020-09-01 14:00:00 18.1 8 Este 18 Este 0 -- -- 54
2020-09-01 13:00:00 17.2 5 Noroeste 18 Noroeste 0 -- -- 55
2020-09-01 12:00:00 16.5 7 Noroeste 15 Norte 0 -- -- 53
2020-09-01 11:00:00 16.3 5 Nordeste 15 Noroeste 0 -- -- 57
2020-09-01 10:00:00 12.4 0 Calma 4 Oeste 0 -- -- 76
2020-09-01 09:00:00 9.3 0 Calma 2 Norte 0 -- -- 89
2020-09-01 08:00:00 7 0 Calma 2 Norte 0 -- -- 95
2020-09-01 07:00:00 6.7 0 Calma 2 Noroeste 0 -- -- 96
2020-09-01 06:00:00 6.7 0 Calma 2 Norte 0 -- -- 99
2020-09-01 05:00:00 7.1 0 Calma 4 Norte 0 -- -- 94
2020-09-01 04:00:00 7.2 0 Calma 3 Nordeste 0 -- -- 96
2020-09-01 03:00:00 8.1 0 Calma 3 Noroeste 0 -- -- 89
2020-09-01 02:00:00 7.7 2 Noroeste 4 Norte 0 -- -- 91
2020-09-01 01:00:00 8.8 2 Norte 4 Norte 0 -- -- 94
2020-09-01 00:00:00 10.2 4 Norte 9 Nordeste 0 -- -- 92
2020-08-31 23:00:00 11.3 4 Nordeste 10 Norte 0 -- -- 87
2020-08-31 22:00:00 11.3 4 Norte 18 Norte 0 -- -- 86
2020-08-31 21:00:00 12.6 8 Norte 23 Norte 0 -- -- 77
2020-08-31 20:00:00 13 8 Norte 21 Norte 0 -- -- 77
2020-08-31 19:00:00 14.6 11 Norte 23 Norte 0 -- -- 71
2020-08-31 18:00:00 14.9 12 Norte 27 Norte 0 -- -- 69
2020-08-31 17:00:00 15.1 14 Norte 26 Norte 0 -- -- 70
2020-08-31 16:00:00 15.4 13 Norte 24 Norte 0 -- -- 73
2020-08-31 15:00:00 14.5 14 Norte 27 Norte 0 -- -- 74
2020-08-31 14:00:00 13.8 13 Norte 26 Noroeste 0 -- -- 79
2020-08-31 13:00:00 13.4 13 Norte 29 Norte 0 -- -- 77
2020-08-31 12:00:00 12.4 13 Norte 25 Norte 0 -- -- 78
2020-08-31 11:00:00 12.2 7 Nordeste 18 Este 0 -- -- 81
2020-08-31 10:00:00 11.2 4 Nordeste 18 Norte 0 -- -- 86
2020-08-31 09:00:00 9 5 Nordeste 16 Este 0 -- -- 91
2020-08-31 08:00:00 8.1 5 Este 14 Este 0 -- -- 94
2020-08-31 07:00:00 7.8 5 Este 12 Nordeste 0 -- -- 94
2020-08-31 06:00:00 7.9 3 Este 13 Este 0 -- -- 96
2020-08-31 05:00:00 8 5 Este 16 Nordeste 0 -- -- 98
2020-08-31 04:00:00 8.5 8 Este 19 Sudeste 0 -- -- 95
2020-08-31 03:00:00 8.8 7 Este 20 Este 0 -- -- 95
2020-08-31 02:00:00 8.8 5 Nordeste 18 Este 0 -- -- 94
2020-08-31 01:00:00 9.1 9 Este 20 Este 0 -- -- 93
2020-08-31 00:00:00 9.3 8 Este 25 Este 0 -- -- 94
2020-08-30 23:00:00 9.4 7 Sudeste 24 Este 0 -- -- 96
2020-08-30 22:00:00 9.1 5 Sudeste 19 Norte 0.6 -- -- 99
2020-08-30 21:00:00 9.5 5 Sudeste 29 Este 0 -- -- 96
2020-08-30 20:00:00 9.7 3 Sudoeste 10 Este 1 -- -- 99
2020-08-30 19:00:00 9.8 3 Sur 17 Este 0.8 -- -- 98
2020-08-30 18:00:00 10.2 5 Noroeste 12 Nordeste 0 -- -- 96
2020-08-30 17:00:00 11.3 6 Sudeste 24 Nordeste 0 -- -- 92
2020-08-30 16:00:00 10.4 6 Noroeste 22 Noroeste 0 -- -- 95
2020-08-30 15:00:00 10.3 4 Sudoeste 19 Sudeste 0.2 -- -- 96
2020-08-30 14:00:00 10.1 4 Sudoeste 18 Nordeste 0.6 -- -- 94
2020-08-30 13:00:00 9.3 5 Noroeste 15 Noroeste 2.4 -- -- 98
2020-08-30 12:00:00 9.5 4 Nordeste 18 Norte 0.6 -- -- 95
2020-08-30 11:00:00 8.8 4 Norte 15 Norte 0.2 -- -- 97
2020-08-30 10:00:00 8.5 5 Norte 24 Norte 1.4 -- -- 95
2020-08-30 09:00:00 8.5 0 Calma 13 Sudoeste 0.4 -- -- 98
2020-08-30 08:00:00 8.2 5 Norte 39 Norte 0.4 -- -- 95
2020-08-30 07:00:00 8.2 6 Noroeste 22 Nordeste 0.4 -- -- 97
2020-08-30 06:00:00 7.9 0 Calma 12 Oeste 1.2 -- -- 100
2020-08-30 05:00:00 8.2 3 Oeste 14 Norte 1.6 -- -- 100
2020-08-30 04:00:00 7.8 0 Calma 8 Este 0.4 -- -- 100
2020-08-30 03:00:00 8.4 3 Sudoeste 7 Sudeste 0 -- -- 100
2020-08-30 02:00:00 8.2 3 Oeste 13 Norte 3.6 -- -- 99
2020-08-30 01:00:00 8.5 2 Sur 15 Oeste 4.6 -- -- 98
2020-08-30 00:00:00 9 3 Oeste 11 Este 4.2 -- -- 98
2020-08-29 23:00:00 9.5 6 Norte 21 Nordeste 5.2 -- -- 97
2020-08-29 22:00:00 9.7 2 Sudeste 11 Oeste 1.6 -- -- 100
2020-08-29 21:00:00 9.8 5 Noroeste 16 Norte 4.2 -- -- 99
2020-08-29 20:00:00 10.2 3 Noroeste 20 Nordeste 1 -- -- 96
2020-08-29 19:00:00 10.5 9 Norte 24 Nordeste 1.4 -- -- 96
2020-08-29 18:00:00 10.5 8 Nordeste 23 Nordeste 0.8 -- -- 94
2020-08-29 17:00:00 10.9 4 Sudeste 19 Norte 0.8 -- -- 94
2020-08-29 16:00:00 13.7 8 Nordeste 21 Este 0 -- -- 78
2020-08-29 15:00:00 13.1 6 Norte 21 Nordeste 0 -- -- 77
2020-08-29 14:00:00 13.1 5 Este 22 Nordeste 0 -- -- 81
2020-08-29 13:00:00 12.2 6 Este 20 Nordeste 0 -- -- 82
2020-08-29 12:00:00 13 4 Sudeste 26 Nordeste 0 -- -- 80
2020-08-29 11:00:00 9.9 6 Norte 18 Norte 0 -- -- 92
2020-08-29 10:00:00 9.8 6 Este 20 Norte 0.2 -- -- 95
2020-08-29 09:00:00 9.9 6 Norte 20 Norte 0 -- -- 93
2020-08-29 08:00:00 9.7 3 Sudeste 13 Norte 0 -- -- 96
2020-08-29 07:00:00 9.6 3 Oeste 18 Nordeste 0 -- -- 95
2020-08-29 06:00:00 9.4 3 Noroeste 10 Oeste 0.2 -- -- 100
2020-08-29 05:00:00 8.8 3 Nordeste 13 Este 0 -- -- 98
2020-08-29 04:00:00 9.6 3 Noroeste 14 Oeste 0 -- -- 96
2020-08-29 03:00:00 9.9 3 Oeste 18 Noroeste 0 -- -- 96
2020-08-29 02:00:00 10.1 8 Norte 19 Nordeste 0 -- -- 95
2020-08-29 01:00:00 10 6 Noroeste 16 Noroeste 0.2 -- -- 97
2020-08-29 00:00:00 9.9 4 Sur 17 Sudeste 0 -- -- 97
2020-08-28 23:00:00 10.4 4 Oeste 19 Noroeste 0 -- -- 96
2020-08-28 22:00:00 10.4 4 Sudoeste 21 Noroeste 0.2 -- -- 97
2020-08-28 21:00:00 10.7 7 Noroeste 18 Norte 0.8 -- -- 99
2020-08-28 20:00:00 11.2 6 Sudeste 25 Norte 0.8 -- -- 98
2020-08-28 19:00:00 11.5 5 Oeste 21 Noroeste 0.2 -- -- 99
2020-08-28 18:00:00 12.1 5 Sudoeste 23 Norte 0.4 -- -- 100
2020-08-28 17:00:00 12.1 10 Noroeste 28 Norte 0.4 -- -- 100
2020-08-28 16:00:00 12.2 6 Norte 23 Noroeste 0 -- -- 99
2020-08-28 15:00:00 12.5 13 Nordeste 24 Norte 0.4 -- -- 97
2020-08-28 14:00:00 13 9 Norte 22 Nordeste 0.2 -- -- 98
2020-08-28 13:00:00 13 5 Norte 19 Norte 0 -- -- 99
2020-08-28 12:00:00 12.4 10 Norte 28 Norte 0.2 -- -- 99
2020-08-28 11:00:00 12.6 12 Norte 29 Nordeste 0 -- -- 99
2020-08-28 10:00:00 13.4 8 Noroeste 27 Nordeste 0 -- -- 98
2020-08-28 09:00:00 14.7 13 Norte 27 Norte 0.2 -- -- 98
2020-08-28 08:00:00 15.8 3 Sudoeste 13 Noroeste 0 -- -- 99
2020-08-28 07:00:00 15.9 5 Norte 18 Norte 0 -- -- 97
2020-08-28 06:00:00 16 4 Noroeste 19 Oeste 0 -- -- 98
2020-08-28 05:00:00 15.9 3 Sur 15 Norte 0 -- -- 99
2020-08-28 04:00:00 16 7 Norte 33 Norte 0 -- -- 98
2020-08-28 03:00:00 15.9 4 Noroeste 14 Nordeste 0 -- -- 98
2020-08-28 02:00:00 16.2 3 Sudeste 20 Nordeste 0 -- -- 98
2020-08-28 01:00:00 16.4 9 Norte 24 Norte 0 -- -- 98
2020-08-28 00:00:00 16.5 12 Norte 23 Norte 0 -- -- 99
2020-08-27 23:00:00 16.7 4 Nordeste 14 Nordeste 0 -- -- 99
2020-08-27 22:00:00 17.3 4 Este 24 Este 0 -- -- 96
2020-08-27 21:00:00 17.9 4 Sudeste 28 Norte 0 -- -- 92
2020-08-27 20:00:00 18.7 13 Norte 28 Norte 0 -- -- 87
2020-08-27 19:00:00 21 11 Norte 27 Noroeste 0 -- -- 78
2020-08-27 18:00:00 22.1 17 Norte 30 Norte 0 -- -- 72
2020-08-27 17:00:00 23 17 Norte 37 Norte 0 -- -- 69
2020-08-27 16:00:00 24.6 12 Noroeste 24 Noroeste 0 -- -- 66
2020-08-27 15:00:00 24.9 12 Norte 27 Norte 0.2 -- -- 61
2020-08-27 14:00:00 24.5 14 Norte 26 Norte 0 -- -- 61
2020-08-27 13:00:00 26.5 4 Sudoeste 10 Sur 0 -- -- 43
2020-08-27 12:00:00 24.5 5 Este 23 Nordeste 0 -- -- 50
2020-08-27 11:00:00 22.9 4 Sur 8 Sur 0 -- -- 60
2020-08-27 10:00:00 19.5 2 Sudeste 4 Este 0 -- -- 77
2020-08-27 09:00:00 15.9 0 Calma 2 Este 0 -- -- 87
2020-08-27 08:00:00 11.4 0 Calma 3 Noroeste 0 -- -- 100
2020-08-27 07:00:00 11.3 0 Calma 4 Norte 0 -- -- 99
2020-08-27 06:00:00 11.3 0 Calma 4 Noroeste 0 -- -- 100
2020-08-27 05:00:00 11.6 0 Calma 3 Norte 0 -- -- 100
2020-08-27 04:00:00 12.2 0 Calma 4 Noroeste 0 -- -- 100
2020-08-27 03:00:00 13.2 2 Noroeste 8 Norte 0 -- -- 100
2020-08-27 02:00:00 14.8 2 Norte 16 Norte 0 -- -- 100
2020-08-27 01:00:00 16.2 5 Norte 22 Norte 0 -- -- 100
2020-08-27 00:00:00 16.6 9 Norte 27 Norte 0 -- -- 98
2020-08-26 23:00:00 16.9 12 Norte 25 Norte 0 -- -- 97
2020-08-26 22:00:00 16.7 4 Este 17 Norte 0 -- -- 99
2020-08-26 21:00:00 17.1 7 Este 19 Este 0 -- -- 97
2020-08-26 20:00:00 17.5 7 Norte 32 Norte 0 -- -- 94
2020-08-26 19:00:00 18.7 15 Norte 32 Norte 0 -- -- 90
2020-08-26 18:00:00 19.3 15 Norte 31 Norte 0 -- -- 87
2020-08-26 17:00:00 19.6 18 Norte 35 Norte 0 -- -- 86
2020-08-26 16:00:00 20 18 Norte 35 Norte 0 -- -- 85
2020-08-26 15:00:00 20.8 17 Norte 31 Nordeste 0 -- -- 81
2020-08-26 14:00:00 22 12 Norte 26 Norte 0 -- -- 76
2020-08-26 13:00:00 21.5 10 Nordeste 27 Norte 0 -- -- 76
2020-08-26 12:00:00 19.1 13 Norte 26 Norte 0 -- -- 85
2020-08-26 11:00:00 17.9 11 Norte 24 Nordeste 0 -- -- 88
2020-08-26 10:00:00 16.3 10 Norte 28 Norte 0 -- -- 96
2020-08-26 09:00:00 16 11 Norte 31 Nordeste 0 -- -- 96
2020-08-26 08:00:00 14.8 7 Noroeste 27 Noroeste 0 -- -- 98
2020-08-26 07:00:00 15 9 Norte 28 Norte 0 -- -- 98
2020-08-26 06:00:00 14.3 7 Noroeste 21 Nordeste 0 -- -- 94
2020-08-26 05:00:00 12.9 0 Calma 19 Oeste 0 -- -- 98
2020-08-26 04:00:00 13.6 3 Oeste 26 Oeste 0 -- -- 93
2020-08-26 03:00:00 14.3 5 Sudoeste 27 Norte 0 -- -- 90
2020-08-26 02:00:00 14.6 5 Noroeste 17 Noroeste 0 -- -- 86
2020-08-26 01:00:00 12.7 0 Calma 9 Sudeste 0 -- -- 95
2020-08-26 00:00:00 14.6 3 Noroeste 18 Noroeste 0 -- -- 87
2020-08-25 23:00:00 16.1 8 Norte 30 Norte 0 -- -- 77
2020-08-25 22:00:00 16.4 15 Norte 32 Nordeste 0 -- -- 76
2020-08-25 21:00:00 17.2 17 Norte 32 Norte 0 -- -- 72
2020-08-25 20:00:00 18.1 14 Norte 39 Norte 0 -- -- 71
2020-08-25 19:00:00 20.5 17 Norte 36 Norte 0 -- -- 66
2020-08-25 18:00:00 22.3 17 Norte 32 Norte 0 -- -- 63
2020-08-25 17:00:00 23.4 15 Norte 27 Norte 0 -- -- 62
2020-08-25 16:00:00 24.7 14 Norte 25 Norte 0 -- -- 56
2020-08-25 15:00:00 27.8 8 Sudoeste 20 Sudoeste 0 -- -- 33
2020-08-25 14:00:00 26.4 10 Sudoeste 18 Sur 0 -- -- 39
2020-08-25 13:00:00 25.4 9 Sur 20 Sur 0 -- -- 47
2020-08-25 12:00:00 24.6 9 Sudoeste 18 Sur 0 -- -- 49
2020-08-25 11:00:00 22.6 3 Sur 7 Sur 0 -- -- 50
2020-08-25 10:00:00 20.1 0 Calma 6 Nordeste 0 -- -- 76
2020-08-25 09:00:00 17.3 3 Nordeste 6 Nordeste 0 -- -- 70
2020-08-25 08:00:00 10.6 0 Calma 8 Nordeste 0 -- -- 93
2020-08-25 07:00:00 11.2 0 Calma 7 Norte 0 -- -- 92
2020-08-25 06:00:00 13.4 3 Noroeste 10 Norte 0 -- -- 81
2020-08-25 05:00:00 12 2 Noroeste 4 Norte 0 -- -- 90
2020-08-25 04:00:00 11.1 3 Norte 8 Nordeste 0 -- -- 92
2020-08-25 03:00:00 9.6 0 Calma 5 Norte 0 -- -- 99
2020-08-25 02:00:00 10.7 0 Calma 5 Norte 0 -- -- 99
2020-08-25 01:00:00 10.3 0 Calma 2 Noroeste 0 -- -- 100
2020-08-25 00:00:00 11.3 0 Calma 4 Norte 0 -- -- 99
2020-08-24 23:00:00 11.9 0 Calma 7 Noroeste 0 -- -- 98
2020-08-24 22:00:00 14.5 4 Norte 26 Norte 0 -- -- 90
2020-08-24 21:00:00 15.7 11 Norte 27 Norte 0 -- -- 84
2020-08-24 20:00:00 16.5 13 Norte 24 Norte 0 -- -- 80
2020-08-24 19:00:00 17.8 13 Norte 27 Norte 0 -- -- 74
2020-08-24 18:00:00 18 14 Norte 27 Noroeste 0 -- -- 73
2020-08-24 17:00:00 17.9 15 Norte 28 Norte 0 -- -- 73
2020-08-24 16:00:00 17.6 15 Norte 30 Noroeste 0 -- -- 75
2020-08-24 15:00:00 17.1 14 Norte 30 Norte 0 -- -- 75
2020-08-24 14:00:00 16.2 15 Norte 28 Norte 0 -- -- 79
2020-08-24 13:00:00 15.9 9 Norte 27 Nordeste 0 -- -- 82
2020-08-24 12:00:00 14.5 8 Noroeste 28 Norte 0 -- -- 88
2020-08-24 11:00:00 12.9 8 Noroeste 24 Norte 0 -- -- 96
2020-08-24 10:00:00 12.2 4 Sur 25 Este 0 -- -- 100
2020-08-24 09:00:00 11.9 8 Sudeste 23 Este 0 -- -- 100
2020-08-24 08:00:00 11.8 7 Este 21 Nordeste 0 -- -- 100
2020-08-24 07:00:00 11.9 4 Nordeste 23 Nordeste 0 -- -- 100
2020-08-24 06:00:00 12 7 Nordeste 23 Este 0 -- -- 100
2020-08-24 05:00:00 12.2 9 Este 28 Este 0 -- -- 100
2020-08-24 04:00:00 12.4 7 Este 30 Este 0 -- -- 99
2020-08-24 03:00:00 12.4 9 Sudeste 38 Este 0 -- -- 98
2020-08-24 02:00:00 12.7 8 Nordeste 29 Este 0 -- -- 97
2020-08-24 01:00:00 12.9 8 Este 30 Nordeste 0 -- -- 99
2020-08-24 00:00:00 12.9 8 Nordeste 27 Este 0 -- -- 100
2020-08-23 23:00:00 13.1 8 Nordeste 27 Este 0 -- -- 99
2020-08-23 22:00:00 13.6 9 Nordeste 30 Nordeste 0 -- -- 97
2020-08-23 21:00:00 14 6 Este 26 Nordeste 0 -- -- 94
2020-08-23 20:00:00 14.8 8 Este 26 Este 0 -- -- 91
2020-08-23 19:00:00 16.1 8 Este 33 Este 0 -- -- 85
2020-08-23 18:00:00 17 10 Norte 33 Norte 0 -- -- 79
2020-08-23 17:00:00 18.5 9 Este 30 Noroeste 0 -- -- 76
2020-08-23 16:00:00 18.5 8 Sur 35 Nordeste 0 -- -- 71
2020-08-23 15:00:00 17.7 9 Sudeste 31 Nordeste 0 -- -- 69
2020-08-23 14:00:00 17.3 7 Sudoeste 26 Este 0 -- -- 74
2020-08-23 13:00:00 17.4 6 Sudoeste 34 Este 0 -- -- 75
2020-08-23 12:00:00 16.4 9 Este 21 Sudeste 0 -- -- 81
2020-08-23 11:00:00 14 8 Este 26 Este 0 -- -- 92
2020-08-23 10:00:00 13 8 Este 28 Este 0 -- -- 94
2020-08-23 09:00:00 12.7 9 Este 26 Este 0 -- -- 98
2020-08-23 08:00:00 12.6 6 Sur 31 Este 0 -- -- 100
2020-08-23 07:00:00 12.7 6 Sudeste 25 Este 0 -- -- 98
2020-08-23 06:00:00 13.1 10 Este 24 Este 0 -- -- 95
2020-08-23 05:00:00 13.1 6 Sudeste 20 Este 0 -- -- 100
2020-08-23 04:00:00 13.2 10 Este 24 Este 0 -- -- 97
2020-08-23 03:00:00 13.5 6 Sur 24 Nordeste 0 -- -- 99
2020-08-23 02:00:00 13.7 7 Este 31 Este 0 -- -- 97
2020-08-23 01:00:00 13.7 9 Sudeste 27 Este 0 -- -- 99
2020-08-23 00:00:00 13.7 7 Nordeste 25 Este 0 -- -- 99
2020-08-22 23:00:00 14.3 8 Este 20 Nordeste 0 -- -- 97
2020-08-22 22:00:00 14.4 6 Sudeste 24 Norte 0 -- -- 98
2020-08-22 21:00:00 15.1 6 Este 25 Este 0 -- -- 96
2020-08-22 20:00:00 16.1 4 Noroeste 26 Norte 0 -- -- 94
2020-08-22 19:00:00 17.3 13 Norte 28 Norte 0 -- -- 85
2020-08-22 18:00:00 18.6 12 Norte 30 Norte 0 -- -- 75
2020-08-22 17:00:00 19.4 10 Noroeste 26 Noroeste 0 -- -- 68
2020-08-22 16:00:00 19.1 12 Noroeste 31 Noroeste 0 -- -- 72
2020-08-22 15:00:00 19 10 Norte 29 Norte 0 -- -- 74
2020-08-22 14:00:00 17.9 15 Norte 33 Norte 0 -- -- 79
2020-08-22 13:00:00 16.8 17 Norte 31 Norte 0 -- -- 84
2020-08-22 12:00:00 16.7 14 Norte 32 Norte 0 -- -- 82
2020-08-22 11:00:00 15.7 15 Norte 33 Norte 0 -- -- 82
2020-08-22 10:00:00 14.7 14 Norte 25 Norte 0 -- -- 85
2020-08-22 09:00:00 13.8 10 Norte 25 Norte 0 -- -- 88
2020-08-22 08:00:00 12.4 10 Norte 21 Noroeste 0 -- -- 93
2020-08-22 07:00:00 12.6 7 Norte 21 Norte 0 -- -- 92
2020-08-22 06:00:00 12.6 8 Nordeste 21 Nordeste 0 -- -- 93
2020-08-22 05:00:00 12.9 9 Norte 25 Nordeste 0 -- -- 90
2020-08-22 04:00:00 13 11 Norte 26 Norte 0 -- -- 89
2020-08-22 03:00:00 13 10 Norte 30 Noroeste 0 -- -- 93
2020-08-22 02:00:00 13.4 14 Norte 31 Norte 0 -- -- 91
2020-08-22 01:00:00 12.8 14 Norte 36 Norte 0 -- -- 92
2020-08-22 00:00:00 12.3 18 Norte 35 Norte 0 -- -- 100